sensor_id;sensor_type;location;lat;lon;timestamp;P1;durP1;ratioP1;P2;durP2;ratioP2
40537;SDS011;27925;41.874;12.526;2022-12-07T00:01:13;49.45;;;21.00;;
40537;SDS011;27925;41.874;12.526;2022-12-07T00:03:41;34.85;;;19.77;;
40537;SDS011;27925;41.874;12.526;2022-12-07T00:06:08;41.53;;;20.73;;
40537;SDS011;27925;41.874;12.526;2022-12-07T00:08:35;40.35;;;20.25;;
40537;SDS011;27925;41.874;12.526;2022-12-07T00:11:23;43.38;;;21.13;;
40537;SDS011;27925;41.874;12.526;2022-12-07T00:13:52;37.53;;;21.25;;
40537;SDS011;27925;41.874;12.526;2022-12-07T00:16:23;36.47;;;19.40;;
40537;SDS011;27925;41.874;12.526;2022-12-07T00:18:50;34.25;;;21.45;;
40537;SDS011;27925;41.874;12.526;2022-12-07T00:21:17;37.42;;;20.20;;
40537;SDS011;27925;41.874;12.526;2022-12-07T00:23:44;33.17;;;18.92;;
40537;SDS011;27925;41.874;12.526;2022-12-07T00:26:13;33.13;;;19.58;;
40537;SDS011;27925;41.874;12.526;2022-12-07T00:28:50;38.35;;;21.13;;
40537;SDS011;27925;41.874;12.526;2022-12-07T00:31:22;36.03;;;20.20;;
40537;SDS011;27925;41.874;12.526;2022-12-07T00:33:49;37.72;;;20.13;;
40537;SDS011;27925;41.874;12.526;2022-12-07T00:36:17;38.95;;;19.83;;
40537;SDS011;27925;41.874;12.526;2022-12-07T00:38:44;36.72;;;19.25;;
40537;SDS011;27925;41.874;12.526;2022-12-07T00:41:11;37.17;;;21.08;;
40537;SDS011;27925;41.874;12.526;2022-12-07T00:43:37;31.17;;;19.10;;
40537;SDS011;27925;41.874;12.526;2022-12-07T00:46:03;35.60;;;19.55;;
40537;SDS011;27925;41.874;12.526;2022-12-07T00:48:29;38.88;;;20.65;;
40537;SDS011;27925;41.874;12.526;2022-12-07T00:50:55;32.08;;;19.98;;
40537;SDS011;27925;41.874;12.526;2022-12-07T00:53:21;40.38;;;19.73;;
40537;SDS011;27925;41.874;12.526;2022-12-07T00:55:46;34.92;;;19.35;;
40537;SDS011;27925;41.874;12.526;2022-12-07T00:58:12;29.20;;;19.45;;
40537;SDS011;27925;41.874;12.526;2022-12-07T01:00:39;36.15;;;19.45;;
40537;SDS011;27925;41.874;12.526;2022-12-07T01:03:06;40.58;;;19.90;;
40537;SDS011;27925;41.874;12.526;2022-12-07T01:05:33;30.10;;;19.20;;
40537;SDS011;27925;41.874;12.526;2022-12-07T01:07:59;30.23;;;19.60;;
40537;SDS011;27925;41.874;12.526;2022-12-07T01:10:26;36.50;;;17.73;;
40537;SDS011;27925;41.874;12.526;2022-12-07T01:12:52;31.75;;;17.75;;
40537;SDS011;27925;41.874;12.526;2022-12-07T01:15:18;29.13;;;17.77;;
40537;SDS011;27925;41.874;12.526;2022-12-07T01:17:44;31.52;;;17.17;;
40537;SDS011;27925;41.874;12.526;2022-12-07T01:20:10;30.35;;;16.83;;
40537;SDS011;27925;41.874;12.526;2022-12-07T01:22:40;26.95;;;16.83;;
40537;SDS011;27925;41.874;12.526;2022-12-07T01:25:06;32.42;;;15.35;;
40537;SDS011;27925;41.874;12.526;2022-12-07T01:27:33;26.27;;;14.25;;
40537;SDS011;27925;41.874;12.526;2022-12-07T01:29:59;28.00;;;14.38;;
40537;SDS011;27925;41.874;12.526;2022-12-07T01:32:26;26.73;;;14.90;;
40537;SDS011;27925;41.874;12.526;2022-12-07T01:34:52;26.30;;;13.52;;
40537;SDS011;27925;41.874;12.526;2022-12-07T01:37:18;28.17;;;13.23;;
40537;SDS011;27925;41.874;12.526;2022-12-07T01:39:44;28.73;;;14.20;;
40537;SDS011;27925;41.874;12.526;2022-12-07T01:42:13;22.40;;;13.52;;
40537;SDS011;27925;41.874;12.526;2022-12-07T01:47:42;22.20;;;12.70;;
40537;SDS011;27925;41.874;12.526;2022-12-07T01:50:12;30.20;;;14.77;;
40537;SDS011;27925;41.874;12.526;2022-12-07T01:52:38;24.23;;;12.38;;
40537;SDS011;27925;41.874;12.526;2022-12-07T01:55:10;20.58;;;12.63;;
40537;SDS011;27925;41.874;12.526;2022-12-07T01:57:40;23.55;;;12.93;;
40537;SDS011;27925;41.874;12.526;2022-12-07T02:00:08;24.80;;;12.50;;
40537;SDS011;27925;41.874;12.526;2022-12-07T02:02:43;24.38;;;12.70;;
40537;SDS011;27925;41.874;12.526;2022-12-07T02:05:15;23.35;;;12.27;;
40537;SDS011;27925;41.874;12.526;2022-12-07T02:07:43;29.58;;;12.88;;
40537;SDS011;27925;41.874;12.526;2022-12-07T02:10:15;23.40;;;11.57;;
40537;SDS011;27925;41.874;12.526;2022-12-07T02:12:43;28.63;;;12.23;;
40537;SDS011;27925;41.874;12.526;2022-12-07T02:15:12;25.70;;;12.80;;
40537;SDS011;27925;41.874;12.526;2022-12-07T02:28:16;23.75;;;11.73;;
40537;SDS011;27925;41.874;12.526;2022-12-07T02:30:52;19.38;;;11.43;;
40537;SDS011;27925;41.874;12.526;2022-12-07T02:33:29;24.30;;;11.70;;
40537;SDS011;27925;41.874;12.526;2022-12-07T02:38:40;23.02;;;10.70;;
40537;SDS011;27925;41.874;12.526;2022-12-07T02:41:13;21.83;;;11.73;;
40537;SDS011;27925;41.874;12.526;2022-12-07T02:43:54;21.70;;;12.00;;
40537;SDS011;27925;41.874;12.526;2022-12-07T02:46:23;22.40;;;12.60;;
40537;SDS011;27925;41.874;12.526;2022-12-07T02:48:54;20.15;;;12.10;;
40537;SDS011;27925;41.874;12.526;2022-12-07T02:51:21;19.08;;;11.95;;
40537;SDS011;27925;41.874;12.526;2022-12-07T02:53:47;24.52;;;11.85;;
40537;SDS011;27925;41.874;12.526;2022-12-07T03:07:10;27.88;;;11.13;;
40537;SDS011;27925;41.874;12.526;2022-12-07T03:12:53;19.23;;;11.07;;
40537;SDS011;27925;41.874;12.526;2022-12-07T03:15:25;22.33;;;9.63;;
40537;SDS011;27925;41.874;12.526;2022-12-07T03:18:07;19.52;;;10.18;;
40537;SDS011;27925;41.874;12.526;2022-12-07T03:20:35;30.05;;;11.23;;
40537;SDS011;27925;41.874;12.526;2022-12-07T03:23:07;25.80;;;11.07;;
40537;SDS011;27925;41.874;12.526;2022-12-07T03:25:46;22.67;;;11.68;;
40537;SDS011;27925;41.874;12.526;2022-12-07T03:28:16;24.25;;;11.45;;
40537;SDS011;27925;41.874;12.526;2022-12-07T03:33:18;26.95;;;11.23;;
40537;SDS011;27925;41.874;12.526;2022-12-07T03:35:55;18.27;;;11.30;;
40537;SDS011;27925;41.874;12.526;2022-12-07T03:38:48;15.35;;;10.80;;
40537;SDS011;27925;41.874;12.526;2022-12-07T03:41:20;25.83;;;11.10;;
40537;SDS011;27925;41.874;12.526;2022-12-07T03:43:49;24.90;;;11.57;;
40537;SDS011;27925;41.874;12.526;2022-12-07T03:47:01;24.27;;;12.20;;
40537;SDS011;27925;41.874;12.526;2022-12-07T03:57:42;27.80;;;12.18;;
40537;SDS011;27925;41.874;12.526;2022-12-07T04:00:10;21.63;;;11.57;;
40537;SDS011;27925;41.874;12.526;2022-12-07T04:02:36;24.50;;;11.63;;
40537;SDS011;27925;41.874;12.526;2022-12-07T04:05:02;20.92;;;10.80;;
40537;SDS011;27925;41.874;12.526;2022-12-07T04:07:29;25.38;;;11.32;;
40537;SDS011;27925;41.874;12.526;2022-12-07T04:09:55;23.50;;;11.32;;
40537;SDS011;27925;41.874;12.526;2022-12-07T04:12:21;24.25;;;10.75;;
40537;SDS011;27925;41.874;12.526;2022-12-07T04:14:47;21.80;;;10.77;;
40537;SDS011;27925;41.874;12.526;2022-12-07T04:17:12;22.58;;;11.15;;
40537;SDS011;27925;41.874;12.526;2022-12-07T04:19:38;24.80;;;10.93;;
40537;SDS011;27925;41.874;12.526;2022-12-07T04:22:04;24.45;;;11.27;;
40537;SDS011;27925;41.874;12.526;2022-12-07T04:24:31;35.65;;;11.80;;
40537;SDS011;27925;41.874;12.526;2022-12-07T04:26:57;18.70;;;10.55;;
40537;SDS011;27925;41.874;12.526;2022-12-07T04:29:23;25.30;;;11.00;;
40537;SDS011;27925;41.874;12.526;2022-12-07T04:31:49;24.40;;;10.55;;
40537;SDS011;27925;41.874;12.526;2022-12-07T04:34:16;24.73;;;10.20;;
40537;SDS011;27925;41.874;12.526;2022-12-07T04:36:42;20.67;;;9.85;;
40537;SDS011;27925;41.874;12.526;2022-12-07T04:39:13;24.17;;;10.27;;
40537;SDS011;27925;41.874;12.526;2022-12-07T04:41:53;21.90;;;9.93;;
40537;SDS011;27925;41.874;12.526;2022-12-07T04:44:19;26.25;;;9.73;;
40537;SDS011;27925;41.874;12.526;2022-12-07T04:46:45;18.88;;;10.25;;
40537;SDS011;27925;41.874;12.526;2022-12-07T04:49:11;25.92;;;9.82;;
40537;SDS011;27925;41.874;12.526;2022-12-07T04:51:38;26.67;;;10.05;;
40537;SDS011;27925;41.874;12.526;2022-12-07T04:54:04;19.33;;;9.02;;
40537;SDS011;27925;41.874;12.526;2022-12-07T04:56:30;20.70;;;9.20;;
40537;SDS011;27925;41.874;12.526;2022-12-07T04:58:56;22.45;;;8.52;;
40537;SDS011;27925;41.874;12.526;2022-12-07T05:01:22;18.25;;;8.00;;
40537;SDS011;27925;41.874;12.526;2022-12-07T05:03:48;16.20;;;7.80;;
40537;SDS011;27925;41.874;12.526;2022-12-07T05:06:14;15.38;;;7.53;;
40537;SDS011;27925;41.874;12.526;2022-12-07T05:08:40;19.55;;;7.75;;
40537;SDS011;27925;41.874;12.526;2022-12-07T05:11:07;16.40;;;7.55;;
40537;SDS011;27925;41.874;12.526;2022-12-07T05:13:33;16.75;;;7.40;;
40537;SDS011;27925;41.874;12.526;2022-12-07T05:16:00;20.83;;;7.93;;
40537;SDS011;27925;41.874;12.526;2022-12-07T05:18:25;25.33;;;8.82;;
40537;SDS011;27925;41.874;12.526;2022-12-07T05:20:51;15.75;;;8.48;;
40537;SDS011;27925;41.874;12.526;2022-12-07T05:23:18;20.27;;;8.15;;
40537;SDS011;27925;41.874;12.526;2022-12-07T05:25:44;17.98;;;7.35;;
40537;SDS011;27925;41.874;12.526;2022-12-07T05:28:11;13.73;;;7.70;;
40537;SDS011;27925;41.874;12.526;2022-12-07T05:30:37;19.05;;;7.75;;
40537;SDS011;27925;41.874;12.526;2022-12-07T05:33:03;18.38;;;8.02;;
40537;SDS011;27925;41.874;12.526;2022-12-07T05:35:28;20.58;;;8.05;;
40537;SDS011;27925;41.874;12.526;2022-12-07T05:37:55;22.00;;;10.50;;
40537;SDS011;27925;41.874;12.526;2022-12-07T05:40:22;23.00;;;8.13;;
40537;SDS011;27925;41.874;12.526;2022-12-07T05:42:48;14.68;;;7.10;;
40537;SDS011;27925;41.874;12.526;2022-12-07T05:45:13;17.38;;;6.90;;
40537;SDS011;27925;41.874;12.526;2022-12-07T05:47:39;21.98;;;7.18;;
40537;SDS011;27925;41.874;12.526;2022-12-07T05:50:05;18.48;;;7.68;;
40537;SDS011;27925;41.874;12.526;2022-12-07T05:52:31;13.25;;;7.32;;
40537;SDS011;27925;41.874;12.526;2022-12-07T05:54:57;26.02;;;8.98;;
40537;SDS011;27925;41.874;12.526;2022-12-07T05:57:23;23.70;;;8.90;;
40537;SDS011;27925;41.874;12.526;2022-12-07T05:59:48;17.33;;;7.97;;
40537;SDS011;27925;41.874;12.526;2022-12-07T06:02:15;19.20;;;9.15;;
40537;SDS011;27925;41.874;12.526;2022-12-07T06:04:42;22.05;;;9.50;;
40537;SDS011;27925;41.874;12.526;2022-12-07T06:07:10;18.63;;;9.50;;
40537;SDS011;27925;41.874;12.526;2022-12-07T06:09:37;22.83;;;9.32;;
40537;SDS011;27925;41.874;12.526;2022-12-07T06:12:03;21.65;;;9.23;;
40537;SDS011;27925;41.874;12.526;2022-12-07T06:14:48;20.42;;;9.38;;
40537;SDS011;27925;41.874;12.526;2022-12-07T06:17:14;15.98;;;10.15;;
40537;SDS011;27925;41.874;12.526;2022-12-07T06:19:40;18.52;;;9.05;;
40537;SDS011;27925;41.874;12.526;2022-12-07T06:22:06;19.23;;;9.35;;
40537;SDS011;27925;41.874;12.526;2022-12-07T06:24:32;20.08;;;10.15;;
40537;SDS011;27925;41.874;12.526;2022-12-07T06:26:58;19.65;;;11.05;;
40537;SDS011;27925;41.874;12.526;2022-12-07T06:29:24;19.63;;;10.60;;
40537;SDS011;27925;41.874;12.526;2022-12-07T06:31:50;22.45;;;10.05;;
40537;SDS011;27925;41.874;12.526;2022-12-07T06:34:17;22.63;;;10.18;;
40537;SDS011;27925;41.874;12.526;2022-12-07T06:36:44;26.05;;;10.80;;
40537;SDS011;27925;41.874;12.526;2022-12-07T06:39:12;22.95;;;10.90;;
40537;SDS011;27925;41.874;12.526;2022-12-07T06:41:38;20.15;;;10.52;;
40537;SDS011;27925;41.874;12.526;2022-12-07T06:44:04;25.50;;;12.07;;
40537;SDS011;27925;41.874;12.526;2022-12-07T06:46:31;25.42;;;11.30;;
40537;SDS011;27925;41.874;12.526;2022-12-07T06:48:56;21.40;;;10.40;;
40537;SDS011;27925;41.874;12.526;2022-12-07T06:51:22;26.20;;;10.73;;
40537;SDS011;27925;41.874;12.526;2022-12-07T06:53:48;20.75;;;9.85;;
40537;SDS011;27925;41.874;12.526;2022-12-07T06:56:14;22.88;;;10.65;;
40537;SDS011;27925;41.874;12.526;2022-12-07T06:58:40;20.88;;;10.07;;
40537;SDS011;27925;41.874;12.526;2022-12-07T07:01:12;21.85;;;10.82;;
40537;SDS011;27925;41.874;12.526;2022-12-07T07:03:39;22.30;;;9.75;;
40537;SDS011;27925;41.874;12.526;2022-12-07T07:06:06;22.35;;;10.57;;
40537;SDS011;27925;41.874;12.526;2022-12-07T07:08:33;29.88;;;10.25;;
40537;SDS011;27925;41.874;12.526;2022-12-07T07:11:00;21.00;;;10.45;;
40537;SDS011;27925;41.874;12.526;2022-12-07T07:13:26;25.77;;;10.93;;
40537;SDS011;27925;41.874;12.526;2022-12-07T07:15:52;24.40;;;10.30;;
40537;SDS011;27925;41.874;12.526;2022-12-07T07:18:18;21.65;;;10.32;;
40537;SDS011;27925;41.874;12.526;2022-12-07T07:20:44;24.95;;;10.82;;
40537;SDS011;27925;41.874;12.526;2022-12-07T07:23:10;36.40;;;19.35;;
40537;SDS011;27925;41.874;12.526;2022-12-07T07:25:35;27.58;;;10.48;;
40537;SDS011;27925;41.874;12.526;2022-12-07T07:28:01;27.38;;;11.15;;
40537;SDS011;27925;41.874;12.526;2022-12-07T07:30:27;20.52;;;10.32;;
40537;SDS011;27925;41.874;12.526;2022-12-07T07:33:02;18.23;;;9.77;;
40537;SDS011;27925;41.874;12.526;2022-12-07T07:35:29;25.98;;;10.20;;
40537;SDS011;27925;41.874;12.526;2022-12-07T07:37:56;25.50;;;10.10;;
40537;SDS011;27925;41.874;12.526;2022-12-07T07:40:22;24.05;;;10.75;;
40537;SDS011;27925;41.874;12.526;2022-12-07T07:42:49;21.45;;;9.75;;
40537;SDS011;27925;41.874;12.526;2022-12-07T07:45:16;22.30;;;9.85;;
40537;SDS011;27925;41.874;12.526;2022-12-07T07:47:42;19.40;;;9.13;;
40537;SDS011;27925;41.874;12.526;2022-12-07T07:50:08;19.95;;;8.80;;
40537;SDS011;27925;41.874;12.526;2022-12-07T07:52:34;22.30;;;9.43;;
40537;SDS011;27925;41.874;12.526;2022-12-07T07:55:00;19.88;;;8.57;;
40537;SDS011;27925;41.874;12.526;2022-12-07T07:57:25;21.38;;;8.30;;
40537;SDS011;27925;41.874;12.526;2022-12-07T07:59:52;25.95;;;8.90;;
40537;SDS011;27925;41.874;12.526;2022-12-07T08:02:18;23.88;;;8.15;;
40537;SDS011;27925;41.874;12.526;2022-12-07T08:04:45;18.45;;;8.38;;
40537;SDS011;27925;41.874;12.526;2022-12-07T08:07:12;22.75;;;8.60;;
40537;SDS011;27925;41.874;12.526;2022-12-07T08:09:38;21.50;;;8.18;;
40537;SDS011;27925;41.874;12.526;2022-12-07T08:12:04;20.60;;;8.60;;
40537;SDS011;27925;41.874;12.526;2022-12-07T08:14:30;21.10;;;7.70;;
40537;SDS011;27925;41.874;12.526;2022-12-07T08:16:56;19.83;;;7.60;;
40537;SDS011;27925;41.874;12.526;2022-12-07T08:19:21;24.80;;;9.75;;
40537;SDS011;27925;41.874;12.526;2022-12-07T08:21:48;26.70;;;16.83;;
40537;SDS011;27925;41.874;12.526;2022-12-07T08:24:14;45.60;;;24.27;;
40537;SDS011;27925;41.874;12.526;2022-12-07T08:26:40;28.35;;;16.00;;
40537;SDS011;27925;41.874;12.526;2022-12-07T08:29:06;35.85;;;13.25;;
40537;SDS011;27925;41.874;12.526;2022-12-07T08:31:32;27.90;;;11.60;;
40537;SDS011;27925;41.874;12.526;2022-12-07T08:33:57;30.02;;;9.85;;
40537;SDS011;27925;41.874;12.526;2022-12-07T08:36:23;21.90;;;9.45;;
40537;SDS011;27925;41.874;12.526;2022-12-07T08:38:49;22.77;;;8.90;;
40537;SDS011;27925;41.874;12.526;2022-12-07T08:41:15;24.02;;;8.85;;
40537;SDS011;27925;41.874;12.526;2022-12-07T08:43:41;18.67;;;7.93;;
40537;SDS011;27925;41.874;12.526;2022-12-07T08:48:56;24.70;;;8.00;;
40537;SDS011;27925;41.874;12.526;2022-12-07T08:51:26;23.35;;;8.35;;
40537;SDS011;27925;41.874;12.526;2022-12-07T08:53:52;26.10;;;9.18;;
40537;SDS011;27925;41.874;12.526;2022-12-07T08:56:20;29.05;;;8.32;;
40537;SDS011;27925;41.874;12.526;2022-12-07T08:58:46;19.42;;;7.40;;
40537;SDS011;27925;41.874;12.526;2022-12-07T09:01:13;22.58;;;7.88;;
40537;SDS011;27925;41.874;12.526;2022-12-07T09:03:39;26.42;;;7.57;;
40537;SDS011;27925;41.874;12.526;2022-12-07T09:06:05;49.28;;;8.60;;
40537;SDS011;27925;41.874;12.526;2022-12-07T09:08:36;21.25;;;7.65;;
40537;SDS011;27925;41.874;12.526;2022-12-07T09:11:04;16.38;;;6.53;;
40537;SDS011;27925;41.874;12.526;2022-12-07T09:13:30;16.70;;;6.93;;
40537;SDS011;27925;41.874;12.526;2022-12-07T09:15:56;19.77;;;6.78;;
40537;SDS011;27925;41.874;12.526;2022-12-07T09:18:22;20.95;;;6.28;;
40537;SDS011;27925;41.874;12.526;2022-12-07T09:20:49;21.45;;;6.32;;
40537;SDS011;27925;41.874;12.526;2022-12-07T09:23:15;18.13;;;6.53;;
40537;SDS011;27925;41.874;12.526;2022-12-07T09:25:41;29.35;;;7.13;;
40537;SDS011;27925;41.874;12.526;2022-12-07T09:28:06;24.70;;;6.43;;
40537;SDS011;27925;41.874;12.526;2022-12-07T09:30:32;19.08;;;5.55;;
40537;SDS011;27925;41.874;12.526;2022-12-07T09:32:58;16.25;;;6.50;;
40537;SDS011;27925;41.874;12.526;2022-12-07T09:35:24;17.75;;;6.03;;
40537;SDS011;27925;41.874;12.526;2022-12-07T09:37:51;21.67;;;6.60;;
40537;SDS011;27925;41.874;12.526;2022-12-07T09:40:17;19.58;;;6.20;;
40537;SDS011;27925;41.874;12.526;2022-12-07T09:42:49;17.42;;;5.50;;
40537;SDS011;27925;41.874;12.526;2022-12-07T09:45:19;17.05;;;5.88;;
40537;SDS011;27925;41.874;12.526;2022-12-07T09:47:57;21.15;;;6.18;;
40537;SDS011;27925;41.874;12.526;2022-12-07T09:50:24;24.95;;;6.00;;
40537;SDS011;27925;41.874;12.526;2022-12-07T09:52:52;19.60;;;5.18;;
40537;SDS011;27925;41.874;12.526;2022-12-07T09:55:22;19.10;;;6.47;;
40537;SDS011;27925;41.874;12.526;2022-12-07T09:57:52;20.80;;;6.35;;
40537;SDS011;27925;41.874;12.526;2022-12-07T10:00:19;22.38;;;6.55;;
40537;SDS011;27925;41.874;12.526;2022-12-07T10:02:47;16.80;;;6.43;;
40537;SDS011;27925;41.874;12.526;2022-12-07T10:05:20;20.48;;;6.95;;
40537;SDS011;27925;41.874;12.526;2022-12-07T10:07:59;20.48;;;6.07;;
40537;SDS011;27925;41.874;12.526;2022-12-07T10:10:34;25.88;;;7.30;;
40537;SDS011;27925;41.874;12.526;2022-12-07T10:13:04;18.50;;;6.32;;
40537;SDS011;27925;41.874;12.526;2022-12-07T10:20:45;24.17;;;6.43;;
40537;SDS011;27925;41.874;12.526;2022-12-07T10:23:16;28.40;;;6.65;;
40537;SDS011;27925;41.874;12.526;2022-12-07T10:25:43;23.73;;;7.60;;
40537;SDS011;27925;41.874;12.526;2022-12-07T10:30:57;23.23;;;6.60;;
40537;SDS011;27925;41.874;12.526;2022-12-07T10:33:28;19.85;;;5.93;;
40537;SDS011;27925;41.874;12.526;2022-12-07T10:35:55;25.00;;;6.80;;
40537;SDS011;27925;41.874;12.526;2022-12-07T10:38:21;19.98;;;6.57;;
40537;SDS011;27925;41.874;12.526;2022-12-07T10:40:46;19.05;;;6.22;;
40537;SDS011;27925;41.874;12.526;2022-12-07T10:45:44;21.60;;;7.65;;
40537;SDS011;27925;41.874;12.526;2022-12-07T10:59:15;22.73;;;6.70;;
40537;SDS011;27925;41.874;12.526;2022-12-07T11:07:59;19.10;;;6.20;;
40537;SDS011;27925;41.874;12.526;2022-12-07T11:10:47;21.33;;;6.50;;
40537;SDS011;27925;41.874;12.526;2022-12-07T11:29:59;19.83;;;6.25;;
40537;SDS011;27925;41.874;12.526;2022-12-07T11:37:47;19.65;;;6.80;;
40537;SDS011;27925;41.874;12.526;2022-12-07T11:40:21;15.65;;;6.35;;
40537;SDS011;27925;41.874;12.526;2022-12-07T11:43:05;22.23;;;7.07;;
40537;SDS011;27925;41.874;12.526;2022-12-07T11:45:37;24.55;;;7.38;;
40537;SDS011;27925;41.874;12.526;2022-12-07T11:48:09;22.65;;;7.63;;
40537;SDS011;27925;41.874;12.526;2022-12-07T11:53:23;23.77;;;8.07;;
40537;SDS011;27925;41.874;12.526;2022-12-07T11:56:11;28.95;;;8.85;;
40537;SDS011;27925;41.874;12.526;2022-12-07T12:03:51;24.02;;;7.03;;
40537;SDS011;27925;41.874;12.526;2022-12-07T12:06:21;25.77;;;8.32;;
40537;SDS011;27925;41.874;12.526;2022-12-07T12:08:50;30.17;;;7.20;;
40537;SDS011;27925;41.874;12.526;2022-12-07T12:14:38;22.08;;;8.20;;
40537;SDS011;27925;41.874;12.526;2022-12-07T12:22:57;23.42;;;7.32;;
40537;SDS011;27925;41.874;12.526;2022-12-07T12:25:31;28.20;;;7.50;;
40537;SDS011;27925;41.874;12.526;2022-12-07T12:28:03;20.60;;;6.72;;
40537;SDS011;27925;41.874;12.526;2022-12-07T12:30:34;23.30;;;7.63;;
40537;SDS011;27925;41.874;12.526;2022-12-07T12:33:19;20.08;;;6.35;;
40537;SDS011;27925;41.874;12.526;2022-12-07T12:51:50;15.88;;;5.97;;
40537;SDS011;27925;41.874;12.526;2022-12-07T13:02:21;22.92;;;7.57;;
40537;SDS011;27925;41.874;12.526;2022-12-07T13:15:44;24.48;;;7.93;;
40537;SDS011;27925;41.874;12.526;2022-12-07T13:20:53;21.60;;;7.03;;
40537;SDS011;27925;41.874;12.526;2022-12-07T13:26:16;29.15;;;8.68;;
40537;SDS011;27925;41.874;12.526;2022-12-07T13:37:01;20.13;;;6.55;;
40537;SDS011;27925;41.874;12.526;2022-12-07T13:39:57;19.05;;;6.65;;
40537;SDS011;27925;41.874;12.526;2022-12-07T13:42:26;21.60;;;6.60;;
40537;SDS011;27925;41.874;12.526;2022-12-07T13:44:53;20.90;;;7.55;;
40537;SDS011;27925;41.874;12.526;2022-12-07T13:47:36;23.60;;;7.55;;
40537;SDS011;27925;41.874;12.526;2022-12-07T13:52:59;16.80;;;6.30;;
40537;SDS011;27925;41.874;12.526;2022-12-07T13:55:26;22.25;;;6.50;;
40537;SDS011;27925;41.874;12.526;2022-12-07T13:57:54;19.23;;;7.15;;
40537;SDS011;27925;41.874;12.526;2022-12-07T14:00:24;23.23;;;6.80;;
40537;SDS011;27925;41.874;12.526;2022-12-07T14:05:34;21.88;;;6.43;;
40537;SDS011;27925;41.874;12.526;2022-12-07T14:16:05;14.70;;;6.00;;
40537;SDS011;27925;41.874;12.526;2022-12-07T14:21:23;22.95;;;7.03;;
40537;SDS011;27925;41.874;12.526;2022-12-07T14:26:38;20.00;;;6.47;;
40537;SDS011;27925;41.874;12.526;2022-12-07T14:31:53;19.77;;;6.85;;
40537;SDS011;27925;41.874;12.526;2022-12-07T14:34:20;25.70;;;6.95;;
40537;SDS011;27925;41.874;12.526;2022-12-07T14:36:46;25.70;;;7.90;;
40537;SDS011;27925;41.874;12.526;2022-12-07T14:39:12;19.38;;;7.00;;
40537;SDS011;27925;41.874;12.526;2022-12-07T14:41:38;26.98;;;7.78;;
40537;SDS011;27925;41.874;12.526;2022-12-07T14:44:16;18.80;;;5.95;;
40537;SDS011;27925;41.874;12.526;2022-12-07T14:46:43;19.45;;;7.07;;
40537;SDS011;27925;41.874;12.526;2022-12-07T14:49:09;18.55;;;6.70;;
40537;SDS011;27925;41.874;12.526;2022-12-07T14:51:36;26.52;;;8.07;;
40537;SDS011;27925;41.874;12.526;2022-12-07T14:54:04;23.05;;;7.43;;
40537;SDS011;27925;41.874;12.526;2022-12-07T14:56:36;19.38;;;7.68;;
40537;SDS011;27925;41.874;12.526;2022-12-07T14:59:02;22.30;;;7.22;;
40537;SDS011;27925;41.874;12.526;2022-12-07T15:01:27;27.85;;;7.88;;
40537;SDS011;27925;41.874;12.526;2022-12-07T15:03:53;37.20;;;22.20;;
40537;SDS011;27925;41.874;12.526;2022-12-07T15:06:19;29.13;;;13.60;;
40537;SDS011;27925;41.874;12.526;2022-12-07T15:08:44;30.50;;;7.85;;
40537;SDS011;27925;41.874;12.526;2022-12-07T15:11:14;16.92;;;6.90;;
40537;SDS011;27925;41.874;12.526;2022-12-07T15:13:41;28.60;;;7.72;;
40537;SDS011;27925;41.874;12.526;2022-12-07T15:16:26;23.08;;;7.10;;
40537;SDS011;27925;41.874;12.526;2022-12-07T15:18:52;20.13;;;8.27;;
40537;SDS011;27925;41.874;12.526;2022-12-07T15:21:18;23.98;;;8.85;;
40537;SDS011;27925;41.874;12.526;2022-12-07T15:23:45;26.73;;;8.70;;
40537;SDS011;27925;41.874;12.526;2022-12-07T15:26:12;18.95;;;8.48;;
40537;SDS011;27925;41.874;12.526;2022-12-07T15:28:38;26.95;;;9.35;;
40537;SDS011;27925;41.874;12.526;2022-12-07T15:31:04;16.15;;;7.97;;
40537;SDS011;27925;41.874;12.526;2022-12-07T15:33:36;23.80;;;8.27;;
40537;SDS011;27925;41.874;12.526;2022-12-07T15:36:02;21.20;;;8.25;;
40537;SDS011;27925;41.874;12.526;2022-12-07T15:38:28;22.40;;;7.10;;
40537;SDS011;27925;41.874;12.526;2022-12-07T15:40:55;25.58;;;8.52;;
40537;SDS011;27925;41.874;12.526;2022-12-07T15:43:21;24.10;;;8.25;;
40537;SDS011;27925;41.874;12.526;2022-12-07T15:46:06;18.35;;;7.55;;
40537;SDS011;27925;41.874;12.526;2022-12-07T15:48:31;23.05;;;8.43;;
40537;SDS011;27925;41.874;12.526;2022-12-07T15:51:01;20.00;;;7.93;;
40537;SDS011;27925;41.874;12.526;2022-12-07T15:53:34;22.02;;;7.53;;
40537;SDS011;27925;41.874;12.526;2022-12-07T15:56:00;23.00;;;7.45;;
40537;SDS011;27925;41.874;12.526;2022-12-07T15:58:26;17.58;;;7.10;;
40537;SDS011;27925;41.874;12.526;2022-12-07T16:00:52;18.42;;;7.55;;
40537;SDS011;27925;41.874;12.526;2022-12-07T16:03:18;31.10;;;9.27;;
40537;SDS011;27925;41.874;12.526;2022-12-07T16:05:51;22.73;;;7.85;;
40537;SDS011;27925;41.874;12.526;2022-12-07T16:08:18;31.02;;;9.27;;
40537;SDS011;27925;41.874;12.526;2022-12-07T16:10:44;21.83;;;7.82;;
40537;SDS011;27925;41.874;12.526;2022-12-07T16:13:10;26.77;;;9.35;;
40537;SDS011;27925;41.874;12.526;2022-12-07T16:15:38;30.30;;;8.93;;
40537;SDS011;27925;41.874;12.526;2022-12-07T16:18:04;26.75;;;9.15;;
40537;SDS011;27925;41.874;12.526;2022-12-07T16:20:30;21.30;;;8.52;;
40537;SDS011;27925;41.874;12.526;2022-12-07T16:22:56;22.58;;;9.30;;
40537;SDS011;27925;41.874;12.526;2022-12-07T16:25:21;30.20;;;10.85;;
40537;SDS011;27925;41.874;12.526;2022-12-07T16:27:47;30.42;;;10.60;;
40537;SDS011;27925;41.874;12.526;2022-12-07T16:30:14;28.75;;;9.30;;
40537;SDS011;27925;41.874;12.526;2022-12-07T16:32:41;24.52;;;10.38;;
40537;SDS011;27925;41.874;12.526;2022-12-07T16:35:07;31.85;;;13.23;;
40537;SDS011;27925;41.874;12.526;2022-12-07T16:37:33;26.92;;;12.05;;
40537;SDS011;27925;41.874;12.526;2022-12-07T16:39:59;31.50;;;13.20;;
40537;SDS011;27925;41.874;12.526;2022-12-07T16:42:25;31.63;;;12.57;;
40537;SDS011;27925;41.874;12.526;2022-12-07T16:44:51;26.17;;;11.27;;
40537;SDS011;27925;41.874;12.526;2022-12-07T16:47:17;24.95;;;12.07;;
40537;SDS011;27925;41.874;12.526;2022-12-07T16:49:43;29.77;;;12.18;;
40537;SDS011;27925;41.874;12.526;2022-12-07T16:52:08;23.98;;;12.00;;
40537;SDS011;27925;41.874;12.526;2022-12-07T16:54:35;30.70;;;13.55;;
40537;SDS011;27925;41.874;12.526;2022-12-07T16:57:01;33.30;;;14.40;;
40537;SDS011;27925;41.874;12.526;2022-12-07T16:59:27;31.15;;;15.35;;
40537;SDS011;27925;41.874;12.526;2022-12-07T17:01:52;34.10;;;17.98;;
40537;SDS011;27925;41.874;12.526;2022-12-07T17:04:18;39.90;;;16.65;;
40537;SDS011;27925;41.874;12.526;2022-12-07T17:06:44;34.22;;;17.35;;
40537;SDS011;27925;41.874;12.526;2022-12-07T17:09:09;33.42;;;16.35;;
40537;SDS011;27925;41.874;12.526;2022-12-07T17:11:36;41.42;;;17.67;;
40537;SDS011;27925;41.874;12.526;2022-12-07T17:14:02;34.33;;;16.92;;
40537;SDS011;27925;41.874;12.526;2022-12-07T17:16:47;34.03;;;17.02;;
40537;SDS011;27925;41.874;12.526;2022-12-07T17:19:13;44.00;;;17.52;;
40537;SDS011;27925;41.874;12.526;2022-12-07T17:21:40;29.80;;;16.20;;
40537;SDS011;27925;41.874;12.526;2022-12-07T17:24:08;38.20;;;16.25;;